createdAt,value
2019-05-12T00:00:24.536Z,99.90
2019-05-12T00:02:52.736Z,99.71
2019-05-12T00:05:20.959Z,99.70
2019-05-12T00:07:49.151Z,99.58
2019-05-12T00:10:17.842Z,99.67
2019-05-12T00:12:48.175Z,99.60
2019-05-12T00:15:18.803Z,99.52
2019-05-12T00:17:48.076Z,99.76
2019-05-12T00:20:18.273Z,99.90
2019-05-12T00:22:48.651Z,99.83
2019-05-12T00:25:18.086Z,99.82
2019-05-12T00:27:48.595Z,99.80
2019-05-12T00:30:18.531Z,99.94
2019-05-12T00:32:47.832Z,99.96
2019-05-12T00:35:18.143Z,99.96
2019-05-12T00:37:48.538Z,99.97
2019-05-12T00:40:15.875Z,99.96
2019-05-12T00:42:44.067Z,99.99
2019-05-12T00:45:12.284Z,100.00
2019-05-12T00:47:40.533Z,100.00
2019-05-12T00:50:08.695Z,100.00
2019-05-12T00:52:38.563Z,99.97
2019-05-12T00:55:07.891Z,99.89
2019-05-12T00:57:38.304Z,99.98
2019-05-12T01:00:08.782Z,99.97
2019-05-12T01:02:37.963Z,100.00
2019-05-12T01:05:08.620Z,100.00
2019-05-12T01:07:38.301Z,100.00
2019-05-12T01:10:08.626Z,100.00
2019-05-12T01:12:38.169Z,100.00
2019-05-12T01:15:07.599Z,100.00
2019-05-12T01:17:35.776Z,100.00
2019-05-12T01:20:05.815Z,100.00
2019-05-12T01:22:34.065Z,100.00
2019-05-12T01:25:02.278Z,100.00
2019-05-12T01:27:30.496Z,100.00
2019-05-12T01:29:58.696Z,100.00
2019-05-12T01:32:28.826Z,100.00
2019-05-12T01:34:57.790Z,100.00
2019-05-12T01:37:27.997Z,100.00
2019-05-12T01:39:59.750Z,100.00
2019-05-12T01:42:25.914Z,100.00
2019-05-12T01:44:54.152Z,100.00
2019-05-12T01:47:22.375Z,100.00
2019-05-12T01:49:50.574Z,99.99
2019-05-12T01:52:18.810Z,100.00
2019-05-12T01:54:48.319Z,100.00
2019-05-12T01:57:18.760Z,100.00
2019-05-12T01:59:48.394Z,100.00
2019-05-12T02:02:17.917Z,100.00
2019-05-12T02:05:02.980Z,100.00
2019-05-12T02:07:32.839Z,100.00
2019-05-12T02:10:01.042Z,100.00
2019-05-12T02:12:29.250Z,100.00
2019-05-12T02:14:58.914Z,100.00
2019-05-12T02:17:28.325Z,100.00
2019-05-12T02:19:58.671Z,100.00
2019-05-12T02:22:27.866Z,100.00
2019-05-12T02:24:58.313Z,99.93
2019-05-12T02:27:28.306Z,100.00
2019-05-12T02:29:58.465Z,100.00
2019-05-12T02:32:33.217Z,100.00
2019-05-12T02:34:56.049Z,100.00
2019-05-12T02:37:26.262Z,100.00
2019-05-12T02:39:55.609Z,100.00
2019-05-12T02:42:24.504Z,100.00
2019-05-12T02:44:55.216Z,100.00
2019-05-12T02:47:24.135Z,100.00
2019-05-12T02:49:54.468Z,100.00
2019-05-12T02:52:24.929Z,100.00
2019-05-12T02:54:59.566Z,100.00
2019-05-12T02:57:25.497Z,99.86
2019-05-12T02:59:54.050Z,99.91
2019-05-12T03:02:24.399Z,100.00
2019-05-12T03:04:54.779Z,100.00
2019-05-12T03:07:25.483Z,99.92
2019-05-12T03:09:55.055Z,99.83
2019-05-12T03:12:25.627Z,99.91
2019-05-12T03:14:54.461Z,100.00
2019-05-12T03:17:25.172Z,100.00
2019-05-12T03:19:55.604Z,100.00
2019-05-12T03:22:25.236Z,100.00
2019-05-12T03:25:08.086Z,100.00
2019-05-12T03:27:25.686Z,100.00
2019-05-12T03:29:55.050Z,100.00
2019-05-12T03:32:27.190Z,100.00
2019-05-12T03:34:57.325Z,100.00
2019-05-12T03:37:30.867Z,100.00
2019-05-12T03:39:54.522Z,99.99
2019-05-12T03:42:25.165Z,99.96
2019-05-12T03:44:54.607Z,99.85
2019-05-12T03:47:24.789Z,99.58
2019-05-12T03:49:54.448Z,99.62
2019-05-12T03:52:24.342Z,99.72
2019-05-12T03:54:51.757Z,99.73
2019-05-12T03:57:19.951Z,99.43
2019-05-12T03:59:48.190Z,99.54
2019-05-12T04:02:16.396Z,99.59
2019-05-12T04:04:45.403Z,99.09
2019-05-12T04:07:15.238Z,99.35
2019-05-12T04:09:45.101Z,99.26
2019-05-12T04:12:14.801Z,99.93
2019-05-12T04:14:44.950Z,99.51
2019-05-12T04:17:15.008Z,99.31
2019-05-12T04:19:44.756Z,99.50
2019-05-12T04:22:15.362Z,99.60
2019-05-12T04:24:44.594Z,99.35
2019-05-12T04:27:15.069Z,99.07
2019-05-12T04:29:44.139Z,99.20
2019-05-12T04:32:14.322Z,99.21
2019-05-12T04:34:44.673Z,99.39
2019-05-12T04:37:14.876Z,99.38
2019-05-12T04:39:44.731Z,99.23
2019-05-12T04:42:14.836Z,98.85
2019-05-12T04:44:44.841Z,98.81
2019-05-12T04:47:14.619Z,98.76
2019-05-12T04:49:45.000Z,98.56
2019-05-12T04:52:15.255Z,98.49
2019-05-12T04:54:44.478Z,98.50
2019-05-12T04:57:14.807Z,98.72
2019-05-12T04:59:44.852Z,98.52
2019-05-12T05:02:15.062Z,98.29
2019-05-12T05:04:44.087Z,98.27
2019-05-12T05:07:14.827Z,98.21
2019-05-12T05:09:44.217Z,98.35
2019-05-12T05:12:13.967Z,98.09
2019-05-12T05:14:44.378Z,97.79
2019-05-12T05:17:11.442Z,98.22
2019-05-12T05:19:39.659Z,98.53
2019-05-12T05:22:07.851Z,97.66
2019-05-12T05:24:36.053Z,98.01
2019-05-12T05:27:04.518Z,98.51
2019-05-12T05:29:33.610Z,98.02
2019-05-12T05:32:03.554Z,97.45
2019-05-12T05:34:34.128Z,97.47
2019-05-12T05:37:01.783Z,96.64
2019-05-12T05:39:29.987Z,97.03
2019-05-12T05:41:58.187Z,96.72
2019-05-12T05:44:29.201Z,97.13
2019-05-12T05:46:56.826Z,96.45
2019-05-12T05:49:25.021Z,96.02
2019-05-12T05:51:57.193Z,95.74
2019-05-12T05:54:31.325Z,96.34
2019-05-12T05:57:01.851Z,96.63
2019-05-12T05:59:31.180Z,96.37
2019-05-12T06:01:54.861Z,95.83
2019-05-12T06:04:23.766Z,95.63
2019-05-12T06:06:55.382Z,94.50
2019-05-12T06:09:23.560Z,93.70
2019-05-12T06:11:54.041Z,93.55
2019-05-12T06:14:23.547Z,91.59
2019-05-12T06:16:53.775Z,91.71
2019-05-12T06:19:24.076Z,91.25
2019-05-12T06:21:53.405Z,90.58
2019-05-12T06:24:23.779Z,90.22
2019-05-12T06:27:00.020Z,90.50
2019-05-12T06:29:22.721Z,89.92
2019-05-12T06:31:51.426Z,89.00
2019-05-12T06:34:21.041Z,88.26
2019-05-12T06:36:49.515Z,88.04
2019-05-12T06:39:20.517Z,88.10
2019-05-12T06:41:47.654Z,87.98
2019-05-12T06:44:19.328Z,88.10
2019-05-12T06:46:45.788Z,87.64
2019-05-12T06:49:17.462Z,87.51
2019-05-12T06:51:44.529Z,86.19
2019-05-12T06:54:15.137Z,85.00
2019-05-12T06:56:43.556Z,83.31
2019-05-12T06:59:14.491Z,84.22
2019-05-12T07:01:41.768Z,84.04
2019-05-12T07:04:11.593Z,83.61
2019-05-12T07:06:39.800Z,83.01
2019-05-12T07:09:09.979Z,83.65
2019-05-12T07:11:44.708Z,82.72
2019-05-12T07:14:19.026Z,80.80
2019-05-12T07:16:37.793Z,81.44
2019-05-12T07:19:16.039Z,81.17
2019-05-12T07:21:35.903Z,82.06
2019-05-12T07:24:06.737Z,81.04
2019-05-12T07:26:34.044Z,79.51
2019-05-12T07:29:04.225Z,80.72
2019-05-12T07:31:33.734Z,77.27
2019-05-12T07:34:05.298Z,77.15
2019-05-12T07:36:33.356Z,77.74
2019-05-12T07:39:04.307Z,78.29
2019-05-12T07:41:34.025Z,77.18
2019-05-12T07:44:03.565Z,75.26
2019-05-12T07:46:34.053Z,74.47
2019-05-12T07:49:03.753Z,74.81
2019-05-12T07:51:38.417Z,74.73
2019-05-12T07:54:03.885Z,73.50
2019-05-12T07:56:35.238Z,74.75
2019-05-12T07:59:01.330Z,74.22
2019-05-12T08:01:29.520Z,73.32
2019-05-12T08:04:01.203Z,71.12
2019-05-12T08:06:32.665Z,71.08
2019-05-12T08:08:59.003Z,72.37
2019-05-12T08:11:28.763Z,70.77
2019-05-12T08:13:57.311Z,72.15
2019-05-12T08:16:30.229Z,70.06
2019-05-12T08:18:55.476Z,69.81
2019-05-12T08:21:24.256Z,70.39
2019-05-12T08:23:53.405Z,67.82
2019-05-12T08:26:23.491Z,67.29
2019-05-12T08:28:53.552Z,68.35
2019-05-12T08:31:23.505Z,65.90
2019-05-12T08:33:53.689Z,66.61
2019-05-12T08:36:23.456Z,68.58
2019-05-12T08:38:53.496Z,69.37
2019-05-12T08:41:23.376Z,68.35
2019-05-12T08:43:57.405Z,66.86
2019-05-12T08:46:21.157Z,67.22
2019-05-12T08:48:51.593Z,67.21
2019-05-12T08:51:20.148Z,66.69
2019-05-12T08:53:56.246Z,66.35
2019-05-12T08:56:19.872Z,66.90
2019-05-12T08:58:51.506Z,64.83
2019-05-12T09:01:20.454Z,63.69
2019-05-12T09:03:48.214Z,63.44
2019-05-12T09:06:19.622Z,62.81
2019-05-12T09:08:49.365Z,62.77
2019-05-12T09:11:16.294Z,62.65
2019-05-12T09:13:44.573Z,61.26
2019-05-12T09:16:13.882Z,61.88
2019-05-12T09:18:43.547Z,61.05
2019-05-12T09:21:17.883Z,62.42
2019-05-12T09:23:46.066Z,60.48
2019-05-12T09:26:18.489Z,59.69
2019-05-12T09:28:49.407Z,59.57
2019-05-12T09:31:14.268Z,56.92
2019-05-12T09:33:44.571Z,58.20
2019-05-12T09:36:19.809Z,55.25
2019-05-12T09:38:44.008Z,55.20
2019-05-12T09:41:13.950Z,55.85
2019-05-12T09:43:46.279Z,53.72
2019-05-12T09:46:14.225Z,52.56
2019-05-12T09:48:46.881Z,51.73
2019-05-12T09:51:13.375Z,52.19
2019-05-12T09:53:50.395Z,52.88
2019-05-12T09:56:13.756Z,54.52
2019-05-12T09:58:43.623Z,56.43
2019-05-12T10:01:13.984Z,54.95
2019-05-12T10:03:43.843Z,52.51
2019-05-12T10:06:18.023Z,51.75
2019-05-12T10:08:43.422Z,52.48
2019-05-12T10:11:16.458Z,50.57
2019-05-12T10:13:41.793Z,52.11
2019-05-12T10:16:10.009Z,54.40
2019-05-12T10:18:45.343Z,52.25
2019-05-12T10:21:10.037Z,51.74
2019-05-12T10:23:38.065Z,52.43
2019-05-12T10:26:09.978Z,52.83
2019-05-12T10:28:36.202Z,49.54
2019-05-12T10:31:04.416Z,50.76
2019-05-12T10:33:33.789Z,45.73
2019-05-12T10:36:06.872Z,46.45
2019-05-12T10:38:34.231Z,47.32
2019-05-12T10:41:03.845Z,53.04
2019-05-12T10:43:34.088Z,48.42
2019-05-12T10:46:04.015Z,49.20
2019-05-12T10:48:33.876Z,48.26
2019-05-12T10:51:01.872Z,46.13
2019-05-12T10:53:30.041Z,45.56
2019-05-12T10:55:58.265Z,44.74
2019-05-12T10:58:26.498Z,43.76
2019-05-12T11:00:58.988Z,44.40
2019-05-12T11:03:24.633Z,44.01
2019-05-12T11:05:56.660Z,44.91
2019-05-12T11:08:24.725Z,44.27
2019-05-12T11:10:57.655Z,42.82
2019-05-12T11:13:23.380Z,41.96
2019-05-12T11:15:51.633Z,43.34
2019-05-12T11:18:26.131Z,44.05
2019-05-12T11:20:49.818Z,45.38
2019-05-12T11:23:18.039Z,45.84
2019-05-12T11:25:46.239Z,45.50
2019-05-12T11:28:14.495Z,42.58
2019-05-12T11:30:43.685Z,43.26
2019-05-12T11:33:11.984Z,42.14
2019-05-12T11:35:40.181Z,41.51
2019-05-12T11:38:08.403Z,42.52
2019-05-12T11:40:36.618Z,44.17
2019-05-12T11:43:04.861Z,43.47
2019-05-12T11:45:33.661Z,41.82
2019-05-12T11:48:05.988Z,41.18
2019-05-12T11:50:32.079Z,41.08
2019-05-12T11:53:00.292Z,41.73
2019-05-12T11:55:31.513Z,43.12
2019-05-12T11:58:00.351Z,43.38
2019-05-12T12:00:30.000Z,44.79
2019-05-12T12:02:58.211Z,41.36
2019-05-12T12:05:26.403Z,39.38
2019-05-12T12:07:56.179Z,39.92
2019-05-12T12:10:29.272Z,38.69
2019-05-12T12:12:54.464Z,38.60
2019-05-12T12:15:26.336Z,39.88
2019-05-12T12:17:53.597Z,39.60
2019-05-12T12:20:24.109Z,39.88
2019-05-12T12:22:54.087Z,40.99
2019-05-12T12:25:23.531Z,40.94
2019-05-12T12:27:53.715Z,42.24
2019-05-12T12:30:23.680Z,38.46
2019-05-12T12:32:58.751Z,38.41
2019-05-12T12:35:23.341Z,38.78
2019-05-12T12:37:53.933Z,36.70
2019-05-12T12:40:21.487Z,37.17
2019-05-12T12:42:50.439Z,36.13
2019-05-12T12:45:30.365Z,37.22
2019-05-12T12:47:59.181Z,39.41
2019-05-12T12:50:30.470Z,39.63
2019-05-12T12:52:57.308Z,40.05
2019-05-12T12:55:25.521Z,40.50
2019-05-12T12:57:53.737Z,39.84
2019-05-12T13:00:31.783Z,40.41
2019-05-12T13:02:51.861Z,39.31
2019-05-12T13:05:20.077Z,38.85
2019-05-12T13:07:48.285Z,38.91
2019-05-12T13:10:17.176Z,40.06
2019-05-12T13:12:50.436Z,39.33
2019-05-12T13:15:15.309Z,38.73
2019-05-12T13:17:44.724Z,38.11
2019-05-12T13:20:13.778Z,36.81
2019-05-12T13:22:44.225Z,36.71
2019-05-12T13:25:14.018Z,36.31
2019-05-12T13:27:41.834Z,36.12
2019-05-12T13:30:18.514Z,35.87
2019-05-12T13:32:40.045Z,35.54
2019-05-12T13:35:09.788Z,36.09
2019-05-12T13:37:38.169Z,37.37
2019-05-12T13:40:06.722Z,36.74
2019-05-12T13:42:35.780Z,37.05
2019-05-12T13:45:06.809Z,36.94
2019-05-12T13:47:39.643Z,35.21
2019-05-12T13:50:06.582Z,34.15
2019-05-12T13:52:34.784Z,35.67
2019-05-12T13:55:05.684Z,34.46
2019-05-12T13:57:34.144Z,34.13
2019-05-12T14:00:08.607Z,33.04
2019-05-12T14:02:33.608Z,33.95
2019-05-12T14:05:07.127Z,35.54
2019-05-12T14:07:34.401Z,35.15
2019-05-12T14:10:03.621Z,35.67
2019-05-12T14:12:31.905Z,36.29
2019-05-12T14:15:00.130Z,35.53
2019-05-12T14:17:31.011Z,34.51
2019-05-12T14:19:58.297Z,34.13
2019-05-12T14:22:26.598Z,32.78
2019-05-12T14:24:54.772Z,33.79
2019-05-12T14:27:27.036Z,33.42
2019-05-12T14:29:53.735Z,34.03
2019-05-12T14:32:23.933Z,33.92
2019-05-12T14:34:59.400Z,32.30
2019-05-12T14:37:23.931Z,32.52
2019-05-12T14:39:53.655Z,33.41
2019-05-12T14:42:26.076Z,32.56
2019-05-12T14:44:53.599Z,32.11
2019-05-12T14:47:28.342Z,33.14
2019-05-12T14:49:51.542Z,32.76
2019-05-12T14:52:19.749Z,32.67
2019-05-12T14:54:47.958Z,34.26
2019-05-12T14:57:16.169Z,35.62
2019-05-12T14:59:44.369Z,36.91
2019-05-12T15:02:13.616Z,37.91
2019-05-12T15:04:43.566Z,38.19
2019-05-12T15:07:11.802Z,39.35
2019-05-12T15:09:39.999Z,38.78
2019-05-12T15:12:08.206Z,38.55
2019-05-12T15:14:38.154Z,40.42
2019-05-12T15:17:06.352Z,39.56
2019-05-12T15:19:34.547Z,38.86
2019-05-12T15:22:07.646Z,38.89
2019-05-12T15:24:33.667Z,39.40
2019-05-12T15:27:03.715Z,40.01
2019-05-12T15:29:33.768Z,40.71
2019-05-12T15:32:03.819Z,41.19
2019-05-12T15:34:33.730Z,41.58
2019-05-12T15:37:03.986Z,41.53
2019-05-12T15:39:33.538Z,40.18
2019-05-12T15:42:03.534Z,40.47
2019-05-12T15:44:34.448Z,39.39
2019-05-12T15:47:03.702Z,39.23
2019-05-12T15:49:33.465Z,39.66
2019-05-12T15:52:03.331Z,37.91
2019-05-12T15:54:31.186Z,39.54
2019-05-12T15:56:59.390Z,38.56
2019-05-12T15:59:27.592Z,37.58
2019-05-12T16:02:08.593Z,37.46
2019-05-12T16:04:25.727Z,36.80
2019-05-12T16:06:57.718Z,36.37
2019-05-12T16:09:23.908Z,37.18
2019-05-12T16:11:52.123Z,37.26
2019-05-12T16:14:20.324Z,36.57
2019-05-12T16:16:48.544Z,36.50
2019-05-12T16:19:16.771Z,37.20
2019-05-12T16:21:45.600Z,38.89
2019-05-12T16:24:15.633Z,39.12
2019-05-12T16:26:51.741Z,40.18
2019-05-12T16:29:13.904Z,39.85
2019-05-12T16:31:45.600Z,40.43
2019-05-12T16:34:13.838Z,40.41
2019-05-12T16:36:47.487Z,40.75
2019-05-12T16:39:13.475Z,40.91
2019-05-12T16:41:43.860Z,41.12
2019-05-12T16:44:17.432Z,41.79
2019-05-12T16:46:41.650Z,42.68
2019-05-12T16:49:09.867Z,43.08
2019-05-12T16:51:38.063Z,43.28
2019-05-12T16:54:06.277Z,43.80
2019-05-12T16:56:34.480Z,44.81
2019-05-12T16:59:07.118Z,44.31
2019-05-12T17:01:33.505Z,44.61
2019-05-12T17:04:04.173Z,44.37
2019-05-12T17:06:38.495Z,45.23
2019-05-12T17:09:07.487Z,45.78
2019-05-12T17:11:37.419Z,45.83
2019-05-12T17:14:05.666Z,45.91
2019-05-12T17:16:41.894Z,45.32
2019-05-12T17:19:08.438Z,44.20
2019-05-12T17:21:33.725Z,43.39
2019-05-12T17:24:04.024Z,43.35
2019-05-12T17:26:33.449Z,43.50
2019-05-12T17:29:01.840Z,41.67
2019-05-12T17:31:30.043Z,40.75
2019-05-12T17:34:00.286Z,38.42
2019-05-12T17:36:28.197Z,36.44
2019-05-12T17:38:57.842Z,36.94
2019-05-12T17:41:26.090Z,39.12
2019-05-12T17:44:00.887Z,39.55
2019-05-12T17:46:24.223Z,40.95
2019-05-12T17:48:53.283Z,41.11
2019-05-12T17:51:26.859Z,41.19
2019-05-12T17:53:53.878Z,42.47
2019-05-12T17:56:25.149Z,40.56
2019-05-12T17:58:52.972Z,39.91
2019-05-12T18:01:31.125Z,41.43
2019-05-12T18:03:54.043Z,40.60
2019-05-12T18:06:26.962Z,41.64
2019-05-12T18:08:55.477Z,39.76
2019-05-12T18:11:24.030Z,40.06
2019-05-12T18:14:01.401Z,39.46
2019-05-12T18:16:24.848Z,39.88
2019-05-12T18:18:54.765Z,39.76
2019-05-12T18:21:28.449Z,41.02
2019-05-12T18:23:53.680Z,39.74
2019-05-12T18:26:21.967Z,38.99
2019-05-12T18:28:50.186Z,39.12
2019-05-12T18:31:18.395Z,39.60
2019-05-12T18:33:52.079Z,39.84
2019-05-12T18:36:16.543Z,38.54
2019-05-12T18:38:44.912Z,39.42
2019-05-12T18:41:13.926Z,40.65
2019-05-12T18:43:43.489Z,41.10
2019-05-12T18:46:14.123Z,41.07
2019-05-12T18:48:41.843Z,42.02
2019-05-12T18:51:12.221Z,42.81
2019-05-12T18:53:39.970Z,42.59
2019-05-12T18:56:10.243Z,43.63
2019-05-12T18:58:38.120Z,44.64
2019-05-12T19:01:06.798Z,43.68
2019-05-12T19:03:46.839Z,44.53
2019-05-12T19:06:04.937Z,44.64
2019-05-12T19:08:33.173Z,46.67
2019-05-12T19:11:14.995Z,47.82
2019-05-12T19:13:33.651Z,46.50
2019-05-12T19:16:04.549Z,48.13
2019-05-12T19:18:36.815Z,47.40
2019-05-12T19:21:01.093Z,47.56
2019-05-12T19:23:34.969Z,47.88
2019-05-12T19:25:59.234Z,48.02
2019-05-12T19:28:27.440Z,48.62
2019-05-12T19:31:00.873Z,49.73
2019-05-12T19:33:25.630Z,50.17
2019-05-12T19:35:59.794Z,51.46
2019-05-12T19:38:24.106Z,51.86
2019-05-12T19:40:58.735Z,52.19
2019-05-12T19:43:23.752Z,52.36
2019-05-12T19:45:53.605Z,53.10
2019-05-12T19:48:27.113Z,54.07
2019-05-12T19:50:56.634Z,54.62
2019-05-12T19:53:23.897Z,54.37
2019-05-12T19:55:51.973Z,54.94
2019-05-12T19:58:20.168Z,55.37
2019-05-12T20:00:48.374Z,55.92
2019-05-12T20:03:16.571Z,56.47
2019-05-12T20:05:44.779Z,56.86
2019-05-12T20:08:13.744Z,57.89
2019-05-12T20:10:44.620Z,57.07
2019-05-12T20:13:13.645Z,56.70
2019-05-12T20:15:43.706Z,56.36
2019-05-12T20:18:14.468Z,56.68
2019-05-12T20:20:44.600Z,56.41
2019-05-12T20:23:14.132Z,57.38
2019-05-12T20:25:44.249Z,58.26
2019-05-12T20:28:14.410Z,57.99
2019-05-12T20:30:43.863Z,58.07
2019-05-12T20:33:13.756Z,59.38
2019-05-12T20:35:45.137Z,59.48
2019-05-12T20:38:14.879Z,61.12
2019-05-12T20:40:43.246Z,62.17
2019-05-12T20:43:14.653Z,62.47
2019-05-12T20:45:42.254Z,60.81
2019-05-12T20:48:10.736Z,62.38
2019-05-12T20:50:39.151Z,57.93
2019-05-12T20:53:07.561Z,61.64
2019-05-12T20:55:41.222Z,61.79
2019-05-12T20:58:06.135Z,61.52
2019-05-12T21:00:38.981Z,62.04
2019-05-12T21:03:04.708Z,61.78
2019-05-12T21:05:34.316Z,62.22
2019-05-12T21:08:10.954Z,62.44
2019-05-12T21:10:34.150Z,62.62
2019-05-12T21:13:02.694Z,61.86
2019-05-12T21:15:37.333Z,61.96
2019-05-12T21:18:04.467Z,61.53
2019-05-12T21:20:33.679Z,60.36
2019-05-12T21:23:01.516Z,60.75
2019-05-12T21:25:29.922Z,60.96
2019-05-12T21:28:02.649Z,60.64
2019-05-12T21:30:28.490Z,60.19
2019-05-12T21:33:01.348Z,59.67
2019-05-12T21:35:32.079Z,60.16
2019-05-12T21:37:57.239Z,57.70
2019-05-12T21:40:30.222Z,60.27
2019-05-12T21:42:55.794Z,59.77
2019-05-12T21:45:26.752Z,59.93
2019-05-12T21:47:56.622Z,58.97
2019-05-12T21:50:32.409Z,61.76
2019-05-12T21:52:59.506Z,60.96
2019-05-12T21:55:26.634Z,61.96
2019-05-12T21:57:54.886Z,60.53
2019-05-12T22:00:38.944Z,60.42
2019-05-12T22:03:12.336Z,60.25
2019-05-12T22:05:51.010Z,61.94
2019-05-12T22:08:17.576Z,61.92
2019-05-12T22:10:39.468Z,63.63
2019-05-12T22:13:14.416Z,65.77
2019-05-12T22:15:38.043Z,66.45
2019-05-12T22:18:06.452Z,65.17
2019-05-12T22:20:35.998Z,63.92
2019-05-12T22:23:10.226Z,65.44
2019-05-12T22:25:35.190Z,64.48
2019-05-12T22:28:08.276Z,64.86
2019-05-12T22:30:34.852Z,65.18
2019-05-12T22:33:08.300Z,66.33
2019-05-12T22:35:33.804Z,66.85
2019-05-12T22:38:09.349Z,66.57
2019-05-12T22:40:32.350Z,66.11
2019-05-12T22:43:01.372Z,65.27
2019-05-12T22:45:36.180Z,66.63
2019-05-12T22:48:03.690Z,68.02
2019-05-12T22:50:33.233Z,68.82
2019-05-12T22:53:01.298Z,69.16
2019-05-12T22:55:32.545Z,70.22
2019-05-12T22:57:59.839Z,70.82
2019-05-12T23:00:28.381Z,72.23
2019-05-12T23:03:00.588Z,72.24
2019-05-12T23:05:26.929Z,72.06
2019-05-12T23:08:00.158Z,72.07
2019-05-12T23:10:25.490Z,72.25
2019-05-12T23:12:59.770Z,72.34
2019-05-12T23:15:24.386Z,72.67
2019-05-12T23:17:53.236Z,74.42
2019-05-12T23:20:25.533Z,74.83
2019-05-12T23:22:54.246Z,75.12
2019-05-12T23:25:24.283Z,75.14
2019-05-12T23:27:54.084Z,74.84
2019-05-12T23:30:24.224Z,75.76
2019-05-12T23:32:53.018Z,76.41
2019-05-12T23:35:21.500Z,76.54
2019-05-12T23:37:49.931Z,77.33
2019-05-12T23:40:18.356Z,77.66
2019-05-12T23:42:46.782Z,77.52
2019-05-12T23:45:15.320Z,77.67
2019-05-12T23:47:44.133Z,78.59
2019-05-12T23:50:14.147Z,78.96
2019-05-12T23:52:44.087Z,79.66
2019-05-12T23:55:14.028Z,79.52
2019-05-12T23:57:44.464Z,79.36
